sensor_id;sensor_type;location;lat;lon;timestamp;temperature;humidity
57833;DHT22;43667;53.036;6.740;2023-08-20T00:00:20;15.50;99.90
57833;DHT22;43667;53.036;6.740;2023-08-20T00:02:46;15.50;99.90
57833;DHT22;43667;53.036;6.740;2023-08-20T00:05:13;15.50;99.90
57833;DHT22;43667;53.036;6.740;2023-08-20T00:07:39;15.40;99.90
57833;DHT22;43667;53.036;6.740;2023-08-20T00:10:06;15.40;99.90
57833;DHT22;43667;53.036;6.740;2023-08-20T00:12:32;15.40;99.90
57833;DHT22;43667;53.036;6.740;2023-08-20T00:15:04;15.40;99.90
57833;DHT22;43667;53.036;6.740;2023-08-20T00:17:35;15.40;99.90
57833;DHT22;43667;53.036;6.740;2023-08-20T00:20:02;15.30;99.90
57833;DHT22;43667;53.036;6.740;2023-08-20T00:22:34;15.30;99.90
57833;DHT22;43667;53.036;6.740;2023-08-20T00:25:00;15.30;99.90
57833;DHT22;43667;53.036;6.740;2023-08-20T00:27:25;15.30;99.90
57833;DHT22;43667;53.036;6.740;2023-08-20T00:29:51;15.20;99.90
57833;DHT22;43667;53.036;6.740;2023-08-20T00:32:16;15.30;99.90
57833;DHT22;43667;53.036;6.740;2023-08-20T00:34:43;15.20;99.90
57833;DHT22;43667;53.036;6.740;2023-08-20T00:37:09;15.20;99.90
57833;DHT22;43667;53.036;6.740;2023-08-20T00:39:34;15.10;99.90
57833;DHT22;43667;53.036;6.740;2023-08-20T00:42:00;15.20;99.90
57833;DHT22;43667;53.036;6.740;2023-08-20T00:44:25;15.20;99.90
57833;DHT22;43667;53.036;6.740;2023-08-20T00:46:51;15.20;99.90
57833;DHT22;43667;53.036;6.740;2023-08-20T00:49:18;15.20;99.90
57833;DHT22;43667;53.036;6.740;2023-08-20T00:51:45;15.20;99.90
57833;DHT22;43667;53.036;6.740;2023-08-20T00:54:11;15.10;99.90
57833;DHT22;43667;53.036;6.740;2023-08-20T00:56:37;15.10;99.90
57833;DHT22;43667;53.036;6.740;2023-08-20T00:59:04;15.10;99.90
57833;DHT22;43667;53.036;6.740;2023-08-20T01:01:29;15.10;99.90
57833;DHT22;43667;53.036;6.740;2023-08-20T01:03:55;15.10;99.90
57833;DHT22;43667;53.036;6.740;2023-08-20T01:06:42;15.00;99.90
57833;DHT22;43667;53.036;6.740;2023-08-20T01:12:14;14.90;99.90
57833;DHT22;43667;53.036;6.740;2023-08-20T01:14:40;15.10;99.90
57833;DHT22;43667;53.036;6.740;2023-08-20T01:17:05;15.00;99.90
57833;DHT22;43667;53.036;6.740;2023-08-20T01:19:31;15.00;99.90
57833;DHT22;43667;53.036;6.740;2023-08-20T01:30:20;15.30;99.90
57833;DHT22;43667;53.036;6.740;2023-08-20T01:32:49;15.00;99.90
57833;DHT22;43667;53.036;6.740;2023-08-20T01:35:17;15.10;99.90
57833;DHT22;43667;53.036;6.740;2023-08-20T01:49:58;14.90;99.90
57833;DHT22;43667;53.036;6.740;2023-08-20T01:52:24;15.30;99.90
57833;DHT22;43667;53.036;6.740;2023-08-20T01:54:50;15.30;99.90
57833;DHT22;43667;53.036;6.740;2023-08-20T01:57:15;15.10;99.90
57833;DHT22;43667;53.036;6.740;2023-08-20T01:59:41;15.10;99.90
57833;DHT22;43667;53.036;6.740;2023-08-20T02:02:07;14.90;99.90
57833;DHT22;43667;53.036;6.740;2023-08-20T02:04:33;15.10;99.90
57833;DHT22;43667;53.036;6.740;2023-08-20T02:06:59;15.20;99.90
57833;DHT22;43667;53.036;6.740;2023-08-20T02:53:26;15.30;99.90
57833;DHT22;43667;53.036;6.740;2023-08-20T02:55:52;14.80;99.90
57833;DHT22;43667;53.036;6.740;2023-08-20T02:58:17;14.90;99.90
57833;DHT22;43667;53.036;6.740;2023-08-20T03:00:43;14.90;99.90
57833;DHT22;43667;53.036;6.740;2023-08-20T03:03:10;15.10;99.90
57833;DHT22;43667;53.036;6.740;2023-08-20T03:05:36;15.20;99.90
57833;DHT22;43667;53.036;6.740;2023-08-20T03:08:02;14.90;99.90
57833;DHT22;43667;53.036;6.740;2023-08-20T03:56:53;14.40;99.90
57833;DHT22;43667;53.036;6.740;2023-08-20T03:59:19;14.50;99.90
57833;DHT22;43667;53.036;6.740;2023-08-20T04:04:10;14.50;99.90
57833;DHT22;43667;53.036;6.740;2023-08-20T04:06:36;14.30;99.90
57833;DHT22;43667;53.036;6.740;2023-08-20T04:09:02;14.90;99.90
57833;DHT22;43667;53.036;6.740;2023-08-20T04:11:28;14.60;99.90
57833;DHT22;43667;53.036;6.740;2023-08-20T04:13:53;14.70;99.90
57833;DHT22;43667;53.036;6.740;2023-08-20T04:16:19;14.70;99.90
57833;DHT22;43667;53.036;6.740;2023-08-20T04:18:45;14.50;99.90
57833;DHT22;43667;53.036;6.740;2023-08-20T04:21:10;14.40;99.90
57833;DHT22;43667;53.036;6.740;2023-08-20T04:23:36;14.50;99.90
57833;DHT22;43667;53.036;6.740;2023-08-20T04:26:02;14.80;99.90
57833;DHT22;43667;53.036;6.740;2023-08-20T04:28:27;14.60;99.90
57833;DHT22;43667;53.036;6.740;2023-08-20T04:30:53;14.60;99.90
57833;DHT22;43667;53.036;6.740;2023-08-20T04:33:20;14.40;99.90
57833;DHT22;43667;53.036;6.740;2023-08-20T04:35:45;14.80;99.90
57833;DHT22;43667;53.036;6.740;2023-08-20T04:38:11;14.60;99.90
57833;DHT22;43667;53.036;6.740;2023-08-20T04:40:37;14.50;99.90
57833;DHT22;43667;53.036;6.740;2023-08-20T04:43:03;14.40;99.90
57833;DHT22;43667;53.036;6.740;2023-08-20T04:45:28;14.40;99.90
57833;DHT22;43667;53.036;6.740;2023-08-20T04:47:54;14.40;99.90
57833;DHT22;43667;53.036;6.740;2023-08-20T04:50:19;14.60;99.90
57833;DHT22;43667;53.036;6.740;2023-08-20T04:52:45;14.80;99.90
57833;DHT22;43667;53.036;6.740;2023-08-20T04:55:11;14.60;99.90
57833;DHT22;43667;53.036;6.740;2023-08-20T04:57:36;14.70;99.90
57833;DHT22;43667;53.036;6.740;2023-08-20T05:00:02;14.70;99.90
57833;DHT22;43667;53.036;6.740;2023-08-20T05:02:28;14.50;99.90
57833;DHT22;43667;53.036;6.740;2023-08-20T05:04:54;14.50;99.90
57833;DHT22;43667;53.036;6.740;2023-08-20T05:07:19;14.70;99.90
57833;DHT22;43667;53.036;6.740;2023-08-20T05:09:45;15.00;99.90
57833;DHT22;43667;53.036;6.740;2023-08-20T05:12:11;14.60;99.90
57833;DHT22;43667;53.036;6.740;2023-08-20T05:14:36;15.20;99.90
57833;DHT22;43667;53.036;6.740;2023-08-20T05:17:02;15.00;99.90
57833;DHT22;43667;53.036;6.740;2023-08-20T05:19:28;15.20;99.90
57833;DHT22;43667;53.036;6.740;2023-08-20T05:21:53;15.10;99.90
57833;DHT22;43667;53.036;6.740;2023-08-20T05:24:22;14.80;99.90
57833;DHT22;43667;53.036;6.740;2023-08-20T05:27:03;15.20;99.90
57833;DHT22;43667;53.036;6.740;2023-08-20T05:58:41;15.70;99.90
57833;DHT22;43667;53.036;6.740;2023-08-20T06:01:06;16.00;99.90
57833;DHT22;43667;53.036;6.740;2023-08-20T06:03:32;16.00;99.90
57833;DHT22;43667;53.036;6.740;2023-08-20T06:05:58;16.10;99.90
57833;DHT22;43667;53.036;6.740;2023-08-20T06:08:24;16.20;99.90
57833;DHT22;43667;53.036;6.740;2023-08-20T06:10:50;16.30;99.90
57833;DHT22;43667;53.036;6.740;2023-08-20T06:13:16;16.70;99.90
57833;DHT22;43667;53.036;6.740;2023-08-20T06:15:42;16.60;99.90
57833;DHT22;43667;53.036;6.740;2023-08-20T06:18:07;16.70;99.90
57833;DHT22;43667;53.036;6.740;2023-08-20T06:20:33;17.00;99.90
57833;DHT22;43667;53.036;6.740;2023-08-20T06:22:58;16.90;99.90
57833;DHT22;43667;53.036;6.740;2023-08-20T06:25:24;17.10;99.90
57833;DHT22;43667;53.036;6.740;2023-08-20T06:27:50;17.30;99.90
57833;DHT22;43667;53.036;6.740;2023-08-20T06:30:15;17.60;99.90
57833;DHT22;43667;53.036;6.740;2023-08-20T06:32:42;17.80;99.90
57833;DHT22;43667;53.036;6.740;2023-08-20T06:35:08;17.50;99.90
57833;DHT22;43667;53.036;6.740;2023-08-20T06:37:35;17.80;99.90
57833;DHT22;43667;53.036;6.740;2023-08-20T08:54:17;24.50;99.90
57833;DHT22;43667;53.036;6.740;2023-08-20T08:56:43;24.70;99.90
57833;DHT22;43667;53.036;6.740;2023-08-20T08:59:09;24.80;99.90
57833;DHT22;43667;53.036;6.740;2023-08-20T09:01:38;24.90;99.90
57833;DHT22;43667;53.036;6.740;2023-08-20T09:04:05;25.00;99.90
57833;DHT22;43667;53.036;6.740;2023-08-20T09:06:48;25.00;99.90
57833;DHT22;43667;53.036;6.740;2023-08-20T09:09:16;25.00;99.90
57833;DHT22;43667;53.036;6.740;2023-08-20T09:11:42;25.10;99.90
57833;DHT22;43667;53.036;6.740;2023-08-20T09:14:07;25.20;99.90
57833;DHT22;43667;53.036;6.740;2023-08-20T09:16:33;25.20;99.90
57833;DHT22;43667;53.036;6.740;2023-08-20T09:19:00;25.40;99.90
57833;DHT22;43667;53.036;6.740;2023-08-20T09:21:29;25.40;99.90
57833;DHT22;43667;53.036;6.740;2023-08-20T09:23:56;25.50;99.90
57833;DHT22;43667;53.036;6.740;2023-08-20T09:26:23;25.50;99.90
57833;DHT22;43667;53.036;6.740;2023-08-20T09:28:48;25.60;99.90
57833;DHT22;43667;53.036;6.740;2023-08-20T09:31:15;25.60;99.90
57833;DHT22;43667;53.036;6.740;2023-08-20T09:33:50;25.60;99.90
57833;DHT22;43667;53.036;6.740;2023-08-20T09:36:16;25.70;99.90
57833;DHT22;43667;53.036;6.740;2023-08-20T09:38:42;25.80;99.60
57833;DHT22;43667;53.036;6.740;2023-08-20T09:41:08;25.80;98.00
57833;DHT22;43667;53.036;6.740;2023-08-20T09:43:38;25.80;97.60
57833;DHT22;43667;53.036;6.740;2023-08-20T09:46:04;25.90;97.50
57833;DHT22;43667;53.036;6.740;2023-08-20T09:48:34;25.90;98.50
57833;DHT22;43667;53.036;6.740;2023-08-20T09:51:05;26.10;96.60
57833;DHT22;43667;53.036;6.740;2023-08-20T09:53:49;26.00;97.90
57833;DHT22;43667;53.036;6.740;2023-08-20T09:56:27;26.20;99.50
57833;DHT22;43667;53.036;6.740;2023-08-20T09:58:55;26.40;98.10
57833;DHT22;43667;53.036;6.740;2023-08-20T10:01:20;26.50;97.90
57833;DHT22;43667;53.036;6.740;2023-08-20T10:03:46;26.70;96.70
57833;DHT22;43667;53.036;6.740;2023-08-20T10:06:12;26.80;96.10
57833;DHT22;43667;53.036;6.740;2023-08-20T10:08:38;26.90;96.60
57833;DHT22;43667;53.036;6.740;2023-08-20T10:11:04;27.00;95.60
57833;DHT22;43667;53.036;6.740;2023-08-20T10:13:32;27.10;95.30
57833;DHT22;43667;53.036;6.740;2023-08-20T10:15:59;27.00;94.80
57833;DHT22;43667;53.036;6.740;2023-08-20T10:18:24;27.00;94.50
57833;DHT22;43667;53.036;6.740;2023-08-20T10:20:52;26.90;95.20
57833;DHT22;43667;53.036;6.740;2023-08-20T10:23:21;27.20;97.40
57833;DHT22;43667;53.036;6.740;2023-08-20T10:25:53;27.30;94.70
57833;DHT22;43667;53.036;6.740;2023-08-20T10:28:23;27.20;91.20
57833;DHT22;43667;53.036;6.740;2023-08-20T10:31:11;27.40;93.70
57833;DHT22;43667;53.036;6.740;2023-08-20T10:33:48;27.70;85.10
57833;DHT22;43667;53.036;6.740;2023-08-20T10:36:20;27.70;90.90
57833;DHT22;43667;53.036;6.740;2023-08-20T10:38:50;27.80;83.10
57833;DHT22;43667;53.036;6.740;2023-08-20T10:41:16;27.80;88.90
57833;DHT22;43667;53.036;6.740;2023-08-20T10:43:49;27.80;88.50
57833;DHT22;43667;53.036;6.740;2023-08-20T10:46:19;27.80;90.30
57833;DHT22;43667;53.036;6.740;2023-08-20T10:48:48;27.50;89.90
57833;DHT22;43667;53.036;6.740;2023-08-20T10:54:06;27.30;91.40
57833;DHT22;43667;53.036;6.740;2023-08-20T10:56:48;27.10;90.10
57833;DHT22;43667;53.036;6.740;2023-08-20T10:59:16;27.20;91.70
57833;DHT22;43667;53.036;6.740;2023-08-20T11:01:47;27.40;89.70
57833;DHT22;43667;53.036;6.740;2023-08-20T11:04:14;27.60;89.40
57833;DHT22;43667;53.036;6.740;2023-08-20T11:06:41;27.90;86.20
57833;DHT22;43667;53.036;6.740;2023-08-20T11:09:06;27.80;78.70
57833;DHT22;43667;53.036;6.740;2023-08-20T11:11:32;28.00;83.70
57833;DHT22;43667;53.036;6.740;2023-08-20T11:14:12;28.00;79.60
57833;DHT22;43667;53.036;6.740;2023-08-20T11:16:40;28.40;75.20
57833;DHT22;43667;53.036;6.740;2023-08-20T11:19:05;28.30;73.40
57833;DHT22;43667;53.036;6.740;2023-08-20T11:21:35;28.30;72.30
57833;DHT22;43667;53.036;6.740;2023-08-20T11:24:01;28.40;70.30
57833;DHT22;43667;53.036;6.740;2023-08-20T11:26:27;28.40;72.70
57833;DHT22;43667;53.036;6.740;2023-08-20T11:28:52;28.40;71.30
57833;DHT22;43667;53.036;6.740;2023-08-20T11:31:19;28.50;72.00
57833;DHT22;43667;53.036;6.740;2023-08-20T11:33:44;28.40;70.40
57833;DHT22;43667;53.036;6.740;2023-08-20T11:36:10;28.60;67.60
57833;DHT22;43667;53.036;6.740;2023-08-20T11:38:36;28.50;67.10
57833;DHT22;43667;53.036;6.740;2023-08-20T11:41:04;28.10;69.90
57833;DHT22;43667;53.036;6.740;2023-08-20T11:43:30;28.40;70.50
57833;DHT22;43667;53.036;6.740;2023-08-20T11:45:56;28.50;69.30
57833;DHT22;43667;53.036;6.740;2023-08-20T11:48:22;28.60;70.20
57833;DHT22;43667;53.036;6.740;2023-08-20T11:50:49;28.50;68.80
57833;DHT22;43667;53.036;6.740;2023-08-20T11:53:15;28.40;67.90
57833;DHT22;43667;53.036;6.740;2023-08-20T11:55:45;28.50;73.60
57833;DHT22;43667;53.036;6.740;2023-08-20T11:58:12;28.70;74.20
57833;DHT22;43667;53.036;6.740;2023-08-20T12:00:38;28.70;74.20
57833;DHT22;43667;53.036;6.740;2023-08-20T12:03:03;28.80;72.40
57833;DHT22;43667;53.036;6.740;2023-08-20T12:05:30;28.80;75.70
57833;DHT22;43667;53.036;6.740;2023-08-20T12:08:01;29.00;74.10
57833;DHT22;43667;53.036;6.740;2023-08-20T12:10:29;29.00;74.30
57833;DHT22;43667;53.036;6.740;2023-08-20T12:12:56;29.00;74.70
57833;DHT22;43667;53.036;6.740;2023-08-20T12:15:24;29.10;75.40
57833;DHT22;43667;53.036;6.740;2023-08-20T12:18:00;29.20;75.80
57833;DHT22;43667;53.036;6.740;2023-08-20T12:20:28;29.30;78.00
57833;DHT22;43667;53.036;6.740;2023-08-20T12:22:54;29.30;79.90
57833;DHT22;43667;53.036;6.740;2023-08-20T12:25:20;29.30;77.80
57833;DHT22;43667;53.036;6.740;2023-08-20T12:27:45;29.40;78.00
57833;DHT22;43667;53.036;6.740;2023-08-20T12:30:11;29.30;76.80
57833;DHT22;43667;53.036;6.740;2023-08-20T12:32:37;29.20;75.60
57833;DHT22;43667;53.036;6.740;2023-08-20T12:35:03;29.80;76.00
57833;DHT22;43667;53.036;6.740;2023-08-20T12:37:29;29.60;74.30
57833;DHT22;43667;53.036;6.740;2023-08-20T12:39:54;29.50;75.50
57833;DHT22;43667;53.036;6.740;2023-08-20T12:42:20;29.40;75.70
57833;DHT22;43667;53.036;6.740;2023-08-20T12:44:46;29.60;77.50
57833;DHT22;43667;53.036;6.740;2023-08-20T12:47:11;30.00;77.50
57833;DHT22;43667;53.036;6.740;2023-08-20T12:49:37;30.20;77.20
57833;DHT22;43667;53.036;6.740;2023-08-20T12:52:02;30.00;78.10
57833;DHT22;43667;53.036;6.740;2023-08-20T12:54:28;30.30;77.10
57833;DHT22;43667;53.036;6.740;2023-08-20T12:56:54;30.00;76.20
57833;DHT22;43667;53.036;6.740;2023-08-20T12:59:20;29.90;77.00
57833;DHT22;43667;53.036;6.740;2023-08-20T13:01:46;29.50;78.70
57833;DHT22;43667;53.036;6.740;2023-08-20T13:04:12;29.30;80.10
57833;DHT22;43667;53.036;6.740;2023-08-20T13:06:39;29.50;80.30
57833;DHT22;43667;53.036;6.740;2023-08-20T13:09:05;29.60;81.60
57833;DHT22;43667;53.036;6.740;2023-08-20T13:11:32;29.10;81.10
57833;DHT22;43667;53.036;6.740;2023-08-20T13:13:58;29.10;81.70
57833;DHT22;43667;53.036;6.740;2023-08-20T13:16:24;29.20;80.90
57833;DHT22;43667;53.036;6.740;2023-08-20T13:18:50;29.10;81.90
57833;DHT22;43667;53.036;6.740;2023-08-20T13:21:15;29.30;79.50
57833;DHT22;43667;53.036;6.740;2023-08-20T13:23:41;29.00;72.70
57833;DHT22;43667;53.036;6.740;2023-08-20T13:26:07;28.90;72.30
57833;DHT22;43667;53.036;6.740;2023-08-20T13:28:33;29.00;71.20
57833;DHT22;43667;53.036;6.740;2023-08-20T13:30:58;28.80;72.20
57833;DHT22;43667;53.036;6.740;2023-08-20T13:33:24;28.80;73.10
57833;DHT22;43667;53.036;6.740;2023-08-20T13:35:49;29.10;76.30
57833;DHT22;43667;53.036;6.740;2023-08-20T13:38:15;29.00;75.80
57833;DHT22;43667;53.036;6.740;2023-08-20T13:40:41;28.90;74.90
57833;DHT22;43667;53.036;6.740;2023-08-20T13:43:06;29.10;75.00
57833;DHT22;43667;53.036;6.740;2023-08-20T13:45:32;29.60;74.10
57833;DHT22;43667;53.036;6.740;2023-08-20T13:47:58;29.60;72.40
57833;DHT22;43667;53.036;6.740;2023-08-20T13:50:23;29.50;71.00
57833;DHT22;43667;53.036;6.740;2023-08-20T13:52:49;29.10;73.00
57833;DHT22;43667;53.036;6.740;2023-08-20T13:55:14;29.00;74.10
57833;DHT22;43667;53.036;6.740;2023-08-20T13:57:40;28.70;74.80
57833;DHT22;43667;53.036;6.740;2023-08-20T14:00:06;28.40;74.90
57833;DHT22;43667;53.036;6.740;2023-08-20T14:02:35;28.60;75.60
57833;DHT22;43667;53.036;6.740;2023-08-20T14:05:01;28.70;75.90
57833;DHT22;43667;53.036;6.740;2023-08-20T14:07:26;29.00;74.50
57833;DHT22;43667;53.036;6.740;2023-08-20T14:09:53;29.10;73.60
57833;DHT22;43667;53.036;6.740;2023-08-20T14:12:18;29.20;73.60
57833;DHT22;43667;53.036;6.740;2023-08-20T14:14:45;29.20;73.30
57833;DHT22;43667;53.036;6.740;2023-08-20T14:17:11;29.20;72.60
57833;DHT22;43667;53.036;6.740;2023-08-20T14:19:36;29.40;72.60
57833;DHT22;43667;53.036;6.740;2023-08-20T14:22:02;29.20;71.10
57833;DHT22;43667;53.036;6.740;2023-08-20T14:24:27;29.30;70.10
57833;DHT22;43667;53.036;6.740;2023-08-20T14:26:56;29.20;73.50
57833;DHT22;43667;53.036;6.740;2023-08-20T14:29:21;29.20;72.90
57833;DHT22;43667;53.036;6.740;2023-08-20T14:31:47;29.20;69.20
57833;DHT22;43667;53.036;6.740;2023-08-20T14:34:13;29.30;69.80
57833;DHT22;43667;53.036;6.740;2023-08-20T14:36:38;29.40;70.80
57833;DHT22;43667;53.036;6.740;2023-08-20T14:39:05;29.30;68.00
57833;DHT22;43667;53.036;6.740;2023-08-20T14:41:31;29.10;67.60
57833;DHT22;43667;53.036;6.740;2023-08-20T14:43:57;29.00;69.40
57833;DHT22;43667;53.036;6.740;2023-08-20T14:46:22;28.70;71.10
57833;DHT22;43667;53.036;6.740;2023-08-20T14:48:48;29.00;70.30
57833;DHT22;43667;53.036;6.740;2023-08-20T14:51:13;29.10;69.60
57833;DHT22;43667;53.036;6.740;2023-08-20T14:53:39;29.00;69.10
57833;DHT22;43667;53.036;6.740;2023-08-20T14:56:05;29.10;69.50
57833;DHT22;43667;53.036;6.740;2023-08-20T14:58:31;29.30;68.60
57833;DHT22;43667;53.036;6.740;2023-08-20T15:00:56;29.50;67.00
57833;DHT22;43667;53.036;6.740;2023-08-20T15:03:22;29.50;67.00
57833;DHT22;43667;53.036;6.740;2023-08-20T15:05:48;29.50;67.60
57833;DHT22;43667;53.036;6.740;2023-08-20T15:08:14;29.80;66.40
57833;DHT22;43667;53.036;6.740;2023-08-20T15:10:39;29.90;66.40
57833;DHT22;43667;53.036;6.740;2023-08-20T15:13:05;30.20;65.10
57833;DHT22;43667;53.036;6.740;2023-08-20T15:15:31;30.40;65.70
57833;DHT22;43667;53.036;6.740;2023-08-20T15:17:57;30.90;65.60
57833;DHT22;43667;53.036;6.740;2023-08-20T15:20:23;31.10;62.00
57833;DHT22;43667;53.036;6.740;2023-08-20T15:22:48;31.00;60.20
57833;DHT22;43667;53.036;6.740;2023-08-20T15:25:14;31.00;61.00
57833;DHT22;43667;53.036;6.740;2023-08-20T15:27:40;30.80;62.70
57833;DHT22;43667;53.036;6.740;2023-08-20T15:30:06;30.80;62.90
57833;DHT22;43667;53.036;6.740;2023-08-20T15:32:33;31.10;63.20
57833;DHT22;43667;53.036;6.740;2023-08-20T15:34:59;30.90;62.50
57833;DHT22;43667;53.036;6.740;2023-08-20T15:37:24;31.10;64.10
57833;DHT22;43667;53.036;6.740;2023-08-20T15:39:50;30.50;65.10
57833;DHT22;43667;53.036;6.740;2023-08-20T15:42:16;30.30;66.00
57833;DHT22;43667;53.036;6.740;2023-08-20T15:44:41;30.10;66.70
57833;DHT22;43667;53.036;6.740;2023-08-20T15:47:07;29.70;67.10
57833;DHT22;43667;53.036;6.740;2023-08-20T15:49:33;29.40;69.30
57833;DHT22;43667;53.036;6.740;2023-08-20T15:52:00;29.10;68.50
57833;DHT22;43667;53.036;6.740;2023-08-20T15:54:25;29.40;69.70
57833;DHT22;43667;53.036;6.740;2023-08-20T15:56:51;29.90;68.00
57833;DHT22;43667;53.036;6.740;2023-08-20T15:59:17;30.40;65.90
57833;DHT22;43667;53.036;6.740;2023-08-20T16:01:43;31.00;65.30
57833;DHT22;43667;53.036;6.740;2023-08-20T16:04:09;31.80;64.10
57833;DHT22;43667;53.036;6.740;2023-08-20T16:06:34;32.30;63.40
57833;DHT22;43667;53.036;6.740;2023-08-20T16:09:00;32.50;62.90
57833;DHT22;43667;53.036;6.740;2023-08-20T16:11:26;32.90;61.40
57833;DHT22;43667;53.036;6.740;2023-08-20T16:13:51;32.60;61.30
57833;DHT22;43667;53.036;6.740;2023-08-20T16:16:17;32.00;62.10
57833;DHT22;43667;53.036;6.740;2023-08-20T16:18:43;31.20;65.00
57833;DHT22;43667;53.036;6.740;2023-08-20T16:21:09;30.60;66.70
57833;DHT22;43667;53.036;6.740;2023-08-20T16:23:35;30.20;69.70
57833;DHT22;43667;53.036;6.740;2023-08-20T16:26:00;29.60;69.20
57833;DHT22;43667;53.036;6.740;2023-08-20T16:28:26;29.80;71.30
57833;DHT22;43667;53.036;6.740;2023-08-20T16:30:52;30.40;70.50
57833;DHT22;43667;53.036;6.740;2023-08-20T16:33:19;30.70;69.10
57833;DHT22;43667;53.036;6.740;2023-08-20T16:35:47;31.70;66.30
57833;DHT22;43667;53.036;6.740;2023-08-20T16:38:12;32.20;65.60
57833;DHT22;43667;53.036;6.740;2023-08-20T16:40:38;32.50;63.10
57833;DHT22;43667;53.036;6.740;2023-08-20T16:43:03;33.10;61.80
57833;DHT22;43667;53.036;6.740;2023-08-20T16:45:30;33.60;61.70
57833;DHT22;43667;53.036;6.740;2023-08-20T16:47:55;33.70;61.70
57833;DHT22;43667;53.036;6.740;2023-08-20T16:50:21;33.90;60.00
57833;DHT22;43667;53.036;6.740;2023-08-20T16:52:47;33.90;60.10
57833;DHT22;43667;53.036;6.740;2023-08-20T16:55:13;34.20;59.80
57833;DHT22;43667;53.036;6.740;2023-08-20T16:57:38;34.40;59.40
57833;DHT22;43667;53.036;6.740;2023-08-20T17:00:05;34.50;59.30
57833;DHT22;43667;53.036;6.740;2023-08-20T17:02:34;34.50;58.20
57833;DHT22;43667;53.036;6.740;2023-08-20T17:05:03;34.00;58.80
57833;DHT22;43667;53.036;6.740;2023-08-20T17:07:29;33.00;59.30
57833;DHT22;43667;53.036;6.740;2023-08-20T17:09:56;32.00;61.40
57833;DHT22;43667;53.036;6.740;2023-08-20T17:12:22;31.10;62.90
57833;DHT22;43667;53.036;6.740;2023-08-20T17:14:48;30.60;65.20
57833;DHT22;43667;53.036;6.740;2023-08-20T17:17:16;30.10;66.20
57833;DHT22;43667;53.036;6.740;2023-08-20T17:19:42;29.40;68.60
57833;DHT22;43667;53.036;6.740;2023-08-20T17:22:08;29.10;69.40
57833;DHT22;43667;53.036;6.740;2023-08-20T17:24:34;28.30;72.00
57833;DHT22;43667;53.036;6.740;2023-08-20T17:27:01;28.10;74.40
57833;DHT22;43667;53.036;6.740;2023-08-20T17:29:27;27.80;75.40
57833;DHT22;43667;53.036;6.740;2023-08-20T17:31:53;27.30;78.90
57833;DHT22;43667;53.036;6.740;2023-08-20T17:34:19;27.10;78.20
57833;DHT22;43667;53.036;6.740;2023-08-20T17:36:45;26.80;84.60
57833;DHT22;43667;53.036;6.740;2023-08-20T17:39:11;26.40;90.90
57833;DHT22;43667;53.036;6.740;2023-08-20T17:41:38;26.30;93.10
57833;DHT22;43667;53.036;6.740;2023-08-20T17:44:04;26.10;95.60
57833;DHT22;43667;53.036;6.740;2023-08-20T17:46:42;25.70;97.30
57833;DHT22;43667;53.036;6.740;2023-08-20T17:49:07;25.60;99.40
57833;DHT22;43667;53.036;6.740;2023-08-20T17:51:33;25.60;99.90
57833;DHT22;43667;53.036;6.740;2023-08-20T17:54:00;25.40;99.90
57833;DHT22;43667;53.036;6.740;2023-08-20T17:56:25;25.10;99.90
57833;DHT22;43667;53.036;6.740;2023-08-20T17:58:51;24.80;99.90
57833;DHT22;43667;53.036;6.740;2023-08-20T18:01:17;24.80;99.90
57833;DHT22;43667;53.036;6.740;2023-08-20T18:03:42;24.90;99.90
57833;DHT22;43667;53.036;6.740;2023-08-20T18:06:08;24.40;99.90
57833;DHT22;43667;53.036;6.740;2023-08-20T18:08:34;24.30;99.90
57833;DHT22;43667;53.036;6.740;2023-08-20T18:10:59;24.40;99.90
57833;DHT22;43667;53.036;6.740;2023-08-20T18:13:25;24.10;99.90
57833;DHT22;43667;53.036;6.740;2023-08-20T18:15:50;23.80;99.90
57833;DHT22;43667;53.036;6.740;2023-08-20T18:18:16;23.70;99.90
57833;DHT22;43667;53.036;6.740;2023-08-20T18:20:41;23.70;99.90
57833;DHT22;43667;53.036;6.740;2023-08-20T18:23:07;23.50;99.90
57833;DHT22;43667;53.036;6.740;2023-08-20T18:25:32;23.40;99.90
57833;DHT22;43667;53.036;6.740;2023-08-20T18:27:59;23.50;99.90
57833;DHT22;43667;53.036;6.740;2023-08-20T18:30:25;23.20;99.90
57833;DHT22;43667;53.036;6.740;2023-08-20T18:32:51;23.20;99.90
57833;DHT22;43667;53.036;6.740;2023-08-20T18:35:17;23.10;99.90
57833;DHT22;43667;53.036;6.740;2023-08-20T18:37:43;22.90;99.90
57833;DHT22;43667;53.036;6.740;2023-08-20T18:40:08;22.80;99.90
57833;DHT22;43667;53.036;6.740;2023-08-20T18:42:36;22.70;99.90
57833;DHT22;43667;53.036;6.740;2023-08-20T18:45:02;23.00;99.90
57833;DHT22;43667;53.036;6.740;2023-08-20T18:47:28;22.50;99.90
57833;DHT22;43667;53.036;6.740;2023-08-20T18:49:54;22.40;99.90
57833;DHT22;43667;53.036;6.740;2023-08-20T18:52:20;22.40;99.90
57833;DHT22;43667;53.036;6.740;2023-08-20T18:54:45;22.30;99.90
57833;DHT22;43667;53.036;6.740;2023-08-20T18:57:11;22.20;99.90
57833;DHT22;43667;53.036;6.740;2023-08-20T18:59:37;22.00;99.90
57833;DHT22;43667;53.036;6.740;2023-08-20T19:02:03;21.90;99.90
57833;DHT22;43667;53.036;6.740;2023-08-20T19:04:29;21.90;99.90
57833;DHT22;43667;53.036;6.740;2023-08-20T19:06:54;21.90;99.90
57833;DHT22;43667;53.036;6.740;2023-08-20T19:09:20;21.60;99.90
57833;DHT22;43667;53.036;6.740;2023-08-20T19:11:46;21.70;99.90
57833;DHT22;43667;53.036;6.740;2023-08-20T19:14:11;21.50;99.90
57833;DHT22;43667;53.036;6.740;2023-08-20T19:16:37;21.20;99.90
57833;DHT22;43667;53.036;6.740;2023-08-20T19:19:02;21.20;99.90
57833;DHT22;43667;53.036;6.740;2023-08-20T19:21:28;21.00;99.90
57833;DHT22;43667;53.036;6.740;2023-08-20T19:23:54;21.10;99.90
57833;DHT22;43667;53.036;6.740;2023-08-20T19:26:20;21.00;99.90
57833;DHT22;43667;53.036;6.740;2023-08-20T19:28:46;20.70;99.90
57833;DHT22;43667;53.036;6.740;2023-08-20T19:31:11;20.70;99.90
57833;DHT22;43667;53.036;6.740;2023-08-20T19:33:42;20.80;99.90
57833;DHT22;43667;53.036;6.740;2023-08-20T19:36:07;20.50;99.90
57833;DHT22;43667;53.036;6.740;2023-08-20T19:38:33;20.40;99.90
57833;DHT22;43667;53.036;6.740;2023-08-20T19:40:58;20.40;99.90
57833;DHT22;43667;53.036;6.740;2023-08-20T19:43:24;20.20;99.90
57833;DHT22;43667;53.036;6.740;2023-08-20T19:45:53;20.20;99.90
57833;DHT22;43667;53.036;6.740;2023-08-20T19:48:20;20.20;99.90
57833;DHT22;43667;53.036;6.740;2023-08-20T19:50:45;20.00;99.90
57833;DHT22;43667;53.036;6.740;2023-08-20T19:53:11;20.00;99.90
57833;DHT22;43667;53.036;6.740;2023-08-20T19:55:37;20.10;99.90
57833;DHT22;43667;53.036;6.740;2023-08-20T19:58:02;19.90;99.90
57833;DHT22;43667;53.036;6.740;2023-08-20T20:00:30;20.00;99.90
57833;DHT22;43667;53.036;6.740;2023-08-20T20:02:56;19.60;99.90
57833;DHT22;43667;53.036;6.740;2023-08-20T20:05:24;19.90;99.90
57833;DHT22;43667;53.036;6.740;2023-08-20T20:07:50;19.70;99.90